HTKA

Kigoma Airport

Kigoma, Tanzania
METAR HTKA 172100Z 00000KT 9999 SCT021 FEW022CB BKN080 22/21 Q1018
Observed Flight Rules
Jan-17 @ 21:00 UTC (2 hours ago) Visual Flight Rules
Visibility Clouds
10,000+ meters
  • Scattered at 2,100' AGL
  • Few at 2,200' AGL
  • Broken at 8,000' AGL
Temperatures Readings
Current 22°C / 72°F
Dewpoint 21°C / 70°F
Humidity 94%
Altimeter 30.06" Hg
Pressure 1017.92 hPa
Elevation 885
METAR HTKA 172100Z 00000KT 9999 SCT021 FEW022CB BKN080 22/21 Q1018
Observed Flight Rules
Jan-17 @ 21:00 UTC
(2 hours ago)
VFR
Clouds
  • Scattered at 2,100' AGL
  • Few at 2,200' AGL
  • Broken at 8,000' AGL
Temperature Dewpoint
22°C / 72°F 21°C / 70°F
Humidity Altimeter Pressure
94% 30.06" Hg 1017.92 hPa